createdAt,value
2022-11-06T00:00:01.934Z,6.63
2022-11-06T00:02:30.480Z,6.50
2022-11-06T00:05:17.484Z,6.39
2022-11-06T00:07:48.471Z,6.13
2022-11-06T00:10:18.143Z,6.13
2022-11-06T00:12:45.828Z,6.12
2022-11-06T00:15:13.497Z,5.71
2022-11-06T00:17:40.984Z,5.72
2022-11-06T00:20:09.576Z,5.76
2022-11-06T00:22:38.390Z,5.75
2022-11-06T00:25:07.219Z,5.65
2022-11-06T00:27:37.663Z,5.56
2022-11-06T00:30:06.527Z,5.60
2022-11-06T00:32:34.553Z,5.57
2022-11-06T00:35:01.842Z,5.60
2022-11-06T00:37:30.328Z,5.57
2022-11-06T00:39:57.301Z,5.58
2022-11-06T00:42:24.259Z,5.63
2022-11-06T00:44:51.140Z,5.61
2022-11-06T00:47:18.178Z,5.54
2022-11-06T00:49:46.150Z,5.57
2022-11-06T00:52:13.216Z,5.47
2022-11-06T00:54:40.252Z,5.47
2022-11-06T00:57:07.142Z,5.75
2022-11-06T00:59:42.881Z,5.62
2022-11-06T01:02:09.999Z,5.60
2022-11-06T01:04:36.987Z,5.50
2022-11-06T01:07:04.015Z,5.80
2022-11-06T01:09:31.102Z,5.83
2022-11-06T01:12:12.952Z,5.87
2022-11-06T01:14:43.158Z,5.98
2022-11-06T01:17:10.798Z,5.98
2022-11-06T01:19:38.001Z,6.09
2022-11-06T01:22:08.064Z,6.03
2022-11-06T01:24:35.400Z,6.03
2022-11-06T01:27:25.469Z,6.03
2022-11-06T01:29:49.520Z,6.04
2022-11-06T01:32:17.350Z,5.92
2022-11-06T01:34:44.592Z,5.79
2022-11-06T01:37:14.950Z,5.75
2022-11-06T01:39:42.508Z,6.01
2022-11-06T01:42:14.157Z,5.83
2022-11-06T01:44:44.052Z,5.99
2022-11-06T01:47:29.532Z,5.93
2022-11-06T01:50:05.178Z,5.85
2022-11-06T01:52:34.390Z,6.04
2022-11-06T01:55:20.619Z,5.90
2022-11-06T01:57:48.720Z,5.97
2022-11-06T02:00:16.368Z,5.95
2022-11-06T02:02:43.828Z,5.85
2022-11-06T02:05:11.225Z,5.91
2022-11-06T02:07:39.406Z,5.66
2022-11-06T02:10:06.960Z,5.63
2022-11-06T02:12:48.016Z,5.57
2022-11-06T02:15:25.820Z,5.61
2022-11-06T02:18:22.198Z,5.70
2022-11-06T02:21:22.771Z,5.87
2022-11-06T02:24:25.031Z,5.70
2022-11-06T02:27:24.684Z,5.91
2022-11-06T02:30:06.632Z,5.97
2022-11-06T02:32:56.984Z,6.02
2022-11-06T02:35:51.888Z,6.10
2022-11-06T02:38:29.301Z,5.89
2022-11-06T02:41:01.677Z,5.94
2022-11-06T02:43:36.755Z,5.99
2022-11-06T02:46:13.964Z,5.96
2022-11-06T02:48:52.716Z,5.97
2022-11-06T02:51:26.640Z,5.88
2022-11-06T02:54:00.678Z,5.85
2022-11-06T02:56:35.252Z,5.89
2022-11-06T02:59:15.570Z,5.87
2022-11-06T03:01:52.725Z,5.95
2022-11-06T03:04:36.255Z,5.87
2022-11-06T03:07:16.029Z,6.02
2022-11-06T03:09:45.700Z,6.00
2022-11-06T03:12:32.243Z,5.94
2022-11-06T03:15:33.183Z,5.74
2022-11-06T03:18:11.909Z,5.66
2022-11-06T03:20:58.172Z,5.70
2022-11-06T03:23:49.138Z,5.93
2022-11-06T03:26:30.042Z,6.04
2022-11-06T03:29:07.126Z,5.70
2022-11-06T03:31:40.812Z,5.66
2022-11-06T03:34:13.685Z,5.67
2022-11-06T03:36:45.531Z,5.70
2022-11-06T03:39:21.981Z,5.99
2022-11-06T03:42:18.641Z,6.02
2022-11-06T03:44:52.750Z,5.84
2022-11-06T03:47:36.866Z,5.63
2022-11-06T03:50:16.814Z,5.69
2022-11-06T03:52:54.190Z,5.60
2022-11-06T03:55:28.663Z,5.78
2022-11-06T03:57:59.788Z,5.86
2022-11-06T04:00:28.032Z,5.82
2022-11-06T04:03:07.762Z,5.66
2022-11-06T04:05:46.188Z,5.69
2022-11-06T04:08:35.361Z,5.69
2022-11-06T04:11:25.492Z,5.66
2022-11-06T04:13:58.159Z,5.80
2022-11-06T04:16:35.246Z,5.86
2022-11-06T04:19:02.945Z,5.84
2022-11-06T04:21:54.495Z,5.79
2022-11-06T04:25:04.730Z,5.63
2022-11-06T04:28:03.676Z,5.62
2022-11-06T04:30:42.630Z,5.66
2022-11-06T04:33:12.934Z,5.78
2022-11-06T04:36:01.491Z,5.84
2022-11-06T04:38:56.032Z,5.91
2022-11-06T04:41:49.545Z,5.95
2022-11-06T04:44:40.209Z,5.85
2022-11-06T04:47:13.866Z,5.86
2022-11-06T04:49:43.703Z,5.93
2022-11-06T04:52:23.657Z,5.79
2022-11-06T04:54:51.104Z,5.93
2022-11-06T04:57:28.344Z,6.02
2022-11-06T04:59:57.039Z,5.98
2022-11-06T05:02:24.983Z,5.86
2022-11-06T05:04:53.243Z,5.81
2022-11-06T05:07:20.270Z,5.99
2022-11-06T05:09:48.972Z,6.02
2022-11-06T05:12:16.323Z,5.93
2022-11-06T05:14:43.319Z,5.89
2022-11-06T05:17:10.350Z,5.82
2022-11-06T05:19:37.390Z,5.82
2022-11-06T05:22:22.734Z,5.79
2022-11-06T05:24:50.766Z,5.88
2022-11-06T05:27:17.901Z,5.64
2022-11-06T05:29:45.505Z,5.60
2022-11-06T05:32:14.436Z,5.88
2022-11-06T05:34:42.795Z,5.61
2022-11-06T05:37:09.933Z,5.54
2022-11-06T05:39:41.605Z,5.43
2022-11-06T05:42:09.781Z,5.32
2022-11-06T05:44:37.746Z,5.28
2022-11-06T05:47:04.821Z,5.27
2022-11-06T05:49:33.399Z,5.40
2022-11-06T05:52:00.813Z,5.13
2022-11-06T05:54:28.323Z,5.29
2022-11-06T05:56:55.304Z,5.19
2022-11-06T05:59:22.376Z,5.14
2022-11-06T06:01:49.459Z,5.00
2022-11-06T06:04:17.561Z,4.90
2022-11-06T06:06:44.890Z,4.82
2022-11-06T06:09:12.102Z,4.96
2022-11-06T06:11:40.233Z,5.09
2022-11-06T06:14:07.282Z,5.10
2022-11-06T06:16:34.352Z,4.89
2022-11-06T06:19:01.484Z,4.90
2022-11-06T06:21:28.739Z,4.86
2022-11-06T06:23:56.759Z,4.63
2022-11-06T06:26:24.120Z,4.92
2022-11-06T06:28:52.131Z,4.95
2022-11-06T06:31:20.420Z,4.92
2022-11-06T06:33:48.471Z,4.97
2022-11-06T06:36:16.359Z,4.70
2022-11-06T06:38:43.507Z,4.69
2022-11-06T06:41:11.667Z,4.85
2022-11-06T06:43:39.156Z,5.02
2022-11-06T06:46:09.780Z,4.98
2022-11-06T06:48:36.884Z,4.97
2022-11-06T06:51:05.092Z,4.99
2022-11-06T06:53:32.437Z,4.99
2022-11-06T06:56:00.849Z,5.07
2022-11-06T06:58:31.743Z,5.09
2022-11-06T07:01:06.527Z,5.12
2022-11-06T07:03:39.322Z,5.00
2022-11-06T07:06:08.542Z,4.85
2022-11-06T07:08:35.966Z,5.08
2022-11-06T07:11:08.442Z,5.08
2022-11-06T07:13:36.684Z,5.19
2022-11-06T07:16:10.531Z,4.98
2022-11-06T07:18:39.790Z,4.99
2022-11-06T07:21:12.231Z,4.94
2022-11-06T07:23:39.262Z,4.83
2022-11-06T07:26:06.800Z,4.89
2022-11-06T07:28:34.494Z,4.87
2022-11-06T07:31:23.308Z,4.91
2022-11-06T07:33:50.219Z,4.96
2022-11-06T07:36:17.142Z,5.03
2022-11-06T07:38:44.395Z,5.19
2022-11-06T07:41:14.198Z,5.30
2022-11-06T07:43:43.331Z,5.31
2022-11-06T07:46:12.833Z,5.61
2022-11-06T07:48:39.944Z,5.44
2022-11-06T07:51:09.824Z,5.54
2022-11-06T07:53:37.768Z,5.69
2022-11-06T07:56:04.973Z,5.85
2022-11-06T07:58:33.630Z,5.90
2022-11-06T08:01:00.738Z,6.16
2022-11-06T08:03:30.830Z,6.17
2022-11-06T08:05:59.104Z,5.85
2022-11-06T08:08:28.541Z,5.49
2022-11-06T08:10:55.567Z,5.51
2022-11-06T08:13:26.007Z,5.66
2022-11-06T08:15:55.970Z,5.81
2022-11-06T08:18:22.895Z,5.88
2022-11-06T08:20:53.152Z,5.81
2022-11-06T08:23:29.305Z,5.78
2022-11-06T08:26:02.186Z,5.92
2022-11-06T08:28:29.799Z,6.07
2022-11-06T08:30:58.737Z,6.28
2022-11-06T08:33:25.614Z,6.27
2022-11-06T08:35:52.485Z,6.22
2022-11-06T08:38:19.393Z,6.33
2022-11-06T08:40:52.266Z,6.40
2022-11-06T08:43:26.663Z,6.54
2022-11-06T08:45:53.979Z,6.26
2022-11-06T08:48:20.867Z,6.24
2022-11-06T08:50:47.959Z,6.40
2022-11-06T08:53:17.367Z,6.02
2022-11-06T08:55:44.741Z,5.82
2022-11-06T08:58:11.674Z,5.79
2022-11-06T09:00:39.087Z,5.84
2022-11-06T09:03:16.355Z,5.63
2022-11-06T09:05:44.551Z,5.73
2022-11-06T09:08:14.664Z,5.91
2022-11-06T09:10:43.243Z,6.20
2022-11-06T09:13:11.552Z,6.21
2022-11-06T09:15:39.323Z,6.13
2022-11-06T09:18:06.843Z,6.00
2022-11-06T09:20:35.561Z,6.35
2022-11-06T09:23:07.877Z,6.98
2022-11-06T09:25:34.889Z,7.43
2022-11-06T09:28:04.178Z,7.51
2022-11-06T09:30:36.124Z,7.34
2022-11-06T09:33:05.316Z,7.69
2022-11-06T09:35:35.939Z,7.80
2022-11-06T09:38:11.152Z,7.11
2022-11-06T09:41:00.645Z,7.13
2022-11-06T09:44:04.550Z,7.18
2022-11-06T09:46:45.046Z,7.84
2022-11-06T09:49:33.937Z,8.09
2022-11-06T09:52:10.804Z,8.14
2022-11-06T09:54:50.746Z,8.18
2022-11-06T09:57:58.162Z,8.33
2022-11-06T10:00:25.429Z,8.52
2022-11-06T10:02:55.888Z,8.54
2022-11-06T10:05:28.143Z,8.37
2022-11-06T10:08:05.735Z,8.20
2022-11-06T10:11:02.491Z,8.67
2022-11-06T10:14:01.536Z,8.91
2022-11-06T10:17:13.288Z,9.15
2022-11-06T10:20:00.099Z,8.42
2022-11-06T10:23:15.778Z,8.64
2022-11-06T10:26:09.400Z,8.94
2022-11-06T10:29:00.237Z,9.12
2022-11-06T10:32:06.691Z,8.73
2022-11-06T10:34:45.137Z,8.27
2022-11-06T10:37:28.337Z,8.42
2022-11-06T10:40:07.004Z,8.59
2022-11-06T10:42:38.711Z,8.93
2022-11-06T10:45:18.603Z,9.07
2022-11-06T10:47:56.459Z,8.99
2022-11-06T10:50:34.544Z,9.11
2022-11-06T10:53:05.861Z,9.08
2022-11-06T10:56:21.397Z,9.30
2022-11-06T10:58:48.494Z,8.92
2022-11-06T11:01:15.711Z,8.99
2022-11-06T11:03:45.645Z,9.18
2022-11-06T11:06:13.101Z,9.02
2022-11-06T11:08:51.422Z,8.81
2022-11-06T11:11:28.430Z,9.11
2022-11-06T11:14:01.344Z,9.13
2022-11-06T11:16:40.364Z,9.18
2022-11-06T11:19:44.465Z,9.03
2022-11-06T11:22:20.091Z,9.39
2022-11-06T11:25:07.009Z,9.56
2022-11-06T11:27:45.314Z,9.51
2022-11-06T11:30:23.426Z,9.69
2022-11-06T11:32:50.888Z,9.28
2022-11-06T11:35:24.894Z,9.62
2022-11-06T11:37:51.880Z,9.46
2022-11-06T11:40:38.667Z,9.50
2022-11-06T11:43:29.181Z,9.68
2022-11-06T11:46:09.167Z,9.71
2022-11-06T11:49:03.281Z,9.81
2022-11-06T11:51:41.030Z,9.75
2022-11-06T11:54:13.985Z,9.63
2022-11-06T11:57:06.110Z,9.77
2022-11-06T12:00:00.492Z,9.94
2022-11-06T12:02:36.490Z,10.02
2022-11-06T12:05:22.962Z,10.28
2022-11-06T12:07:56.699Z,10.19
2022-11-06T12:10:37.991Z,10.40
2022-11-06T12:13:21.601Z,10.38
2022-11-06T12:16:13.319Z,10.28
2022-11-06T12:18:48.018Z,10.43
2022-11-06T12:21:22.133Z,10.57
2022-11-06T12:24:00.225Z,10.38
2022-11-06T12:26:53.569Z,10.65
2022-11-06T12:29:44.636Z,10.80
2022-11-06T12:32:53.137Z,10.82
2022-11-06T12:35:33.212Z,11.14
2022-11-06T12:38:12.289Z,11.36
2022-11-06T12:40:55.788Z,11.37
2022-11-06T12:43:43.065Z,11.37
2022-11-06T12:46:26.798Z,11.24
2022-11-06T12:49:42.770Z,11.15
2022-11-06T12:52:21.581Z,11.21
2022-11-06T12:55:18.484Z,11.22
2022-11-06T12:58:13.057Z,11.28
2022-11-06T13:01:42.011Z,11.45
2022-11-06T13:05:24.775Z,11.43
2022-11-06T13:08:16.905Z,11.42
2022-11-06T13:11:18.224Z,11.64
2022-11-06T13:14:06.409Z,11.70
2022-11-06T13:16:48.225Z,11.46
2022-11-06T13:19:32.934Z,11.44
2022-11-06T13:22:29.932Z,11.42
2022-11-06T13:25:23.822Z,11.26
2022-11-06T13:28:05.397Z,11.24
2022-11-06T13:30:39.262Z,11.16
2022-11-06T13:33:29.194Z,11.09
2022-11-06T13:35:59.105Z,11.06
2022-11-06T13:38:41.569Z,11.02
2022-11-06T13:41:31.161Z,11.22
2022-11-06T13:44:16.039Z,11.39
2022-11-06T13:47:05.841Z,11.33
2022-11-06T13:49:47.050Z,11.24
2022-11-06T13:52:30.251Z,11.22
2022-11-06T13:55:23.503Z,11.29
2022-11-06T13:58:28.368Z,11.28
2022-11-06T14:01:29.127Z,11.39
2022-11-06T14:04:28.304Z,11.30
2022-11-06T14:06:58.551Z,11.33
2022-11-06T14:09:27.985Z,11.24
2022-11-06T14:12:02.858Z,11.38
2022-11-06T14:14:45.801Z,11.36
2022-11-06T14:17:23.845Z,11.27
2022-11-06T14:20:04.471Z,11.47
2022-11-06T14:22:36.429Z,11.53
2022-11-06T14:25:28.203Z,11.49
2022-11-06T14:27:55.006Z,11.35
2022-11-06T14:30:57.625Z,11.22
2022-11-06T14:33:51.556Z,11.12
2022-11-06T14:36:24.923Z,10.98
2022-11-06T14:38:53.321Z,10.95
2022-11-06T14:41:54.504Z,11.02
2022-11-06T14:44:35.309Z,11.02
2022-11-06T14:47:05.997Z,10.89
2022-11-06T14:49:46.779Z,11.04
2022-11-06T14:52:17.126Z,10.94
2022-11-06T14:55:04.701Z,10.82
2022-11-06T14:57:50.640Z,10.59
2022-11-06T15:00:51.523Z,10.68
2022-11-06T15:03:48.985Z,10.41
2022-11-06T15:06:18.879Z,10.38
2022-11-06T15:08:46.881Z,10.37
2022-11-06T15:11:32.287Z,10.22
2022-11-06T15:14:03.211Z,10.29
2022-11-06T15:17:03.199Z,10.14
2022-11-06T15:19:47.793Z,10.30
2022-11-06T15:22:31.765Z,10.22
2022-11-06T15:25:20.717Z,9.88
2022-11-06T15:28:10.760Z,9.95
2022-11-06T15:30:48.854Z,9.80
2022-11-06T15:33:26.956Z,9.89
2022-11-06T15:35:56.067Z,9.73
2022-11-06T15:38:35.587Z,9.90
2022-11-06T15:41:02.534Z,9.82
2022-11-06T15:43:35.812Z,9.79
2022-11-06T15:46:29.629Z,9.87
2022-11-06T15:49:29.439Z,9.89
2022-11-06T15:51:58.943Z,9.73
2022-11-06T15:54:37.141Z,10.03
2022-11-06T15:57:28.449Z,9.81
2022-11-06T16:00:18.237Z,9.65
2022-11-06T16:03:03.293Z,9.93
2022-11-06T16:05:34.507Z,9.82
2022-11-06T16:08:01.925Z,9.86
2022-11-06T16:10:28.966Z,9.79
2022-11-06T16:12:56.375Z,9.49
2022-11-06T16:15:44.980Z,9.47
2022-11-06T16:18:24.289Z,9.42
2022-11-06T16:21:11.564Z,9.44
2022-11-06T16:23:51.820Z,9.77
2022-11-06T16:26:25.753Z,9.47
2022-11-06T16:28:54.840Z,9.63
2022-11-06T16:31:29.102Z,9.30
2022-11-06T16:34:02.729Z,9.43
2022-11-06T16:36:37.957Z,9.40
2022-11-06T16:39:40.142Z,9.31
2022-11-06T16:42:22.484Z,9.41
2022-11-06T16:45:01.345Z,9.42
2022-11-06T16:47:29.008Z,9.18
2022-11-06T16:49:58.427Z,9.41
2022-11-06T16:52:40.198Z,9.37
2022-11-06T16:55:28.424Z,9.32
2022-11-06T16:57:59.484Z,9.44
2022-11-06T17:00:31.949Z,9.35
2022-11-06T17:03:09.108Z,9.51
2022-11-06T17:05:38.749Z,9.53
2022-11-06T17:08:30.296Z,9.51
2022-11-06T17:10:59.219Z,9.55
2022-11-06T17:13:28.660Z,9.48
2022-11-06T17:16:02.727Z,9.38
2022-11-06T17:18:36.502Z,9.40
2022-11-06T17:21:07.734Z,9.46
2022-11-06T17:23:34.736Z,9.32
2022-11-06T17:26:08.161Z,9.58
2022-11-06T17:28:35.057Z,9.50
2022-11-06T17:31:01.966Z,9.69
2022-11-06T17:33:28.824Z,9.61
2022-11-06T17:35:55.829Z,9.29
2022-11-06T17:38:22.825Z,9.29
2022-11-06T17:40:49.767Z,9.15
2022-11-06T17:43:17.192Z,9.08
2022-11-06T17:45:45.676Z,9.12
2022-11-06T17:48:12.976Z,9.19
2022-11-06T17:50:58.281Z,9.44
2022-11-06T17:53:26.359Z,9.48
2022-11-06T17:55:53.264Z,9.33
2022-11-06T17:58:20.214Z,9.45
2022-11-06T18:00:47.798Z,9.33
2022-11-06T18:03:22.781Z,9.32
2022-11-06T18:05:49.744Z,9.18
2022-11-06T18:08:17.182Z,9.13
2022-11-06T18:10:44.525Z,9.18
2022-11-06T18:13:11.396Z,9.24
2022-11-06T18:15:38.386Z,9.24
2022-11-06T18:18:05.350Z,9.12
2022-11-06T18:20:32.204Z,9.15
2022-11-06T18:22:59.160Z,9.41
2022-11-06T18:25:26.221Z,9.33
2022-11-06T18:27:53.092Z,9.34
2022-11-06T18:30:20.633Z,9.40
2022-11-06T18:32:47.558Z,9.49
2022-11-06T18:35:14.417Z,9.46
2022-11-06T18:37:41.457Z,9.31
2022-11-06T18:40:09.212Z,9.37
2022-11-06T18:42:36.196Z,9.41
2022-11-06T18:45:03.415Z,9.33
2022-11-06T18:47:30.296Z,9.27
2022-11-06T18:49:57.239Z,9.28
2022-11-06T18:52:51.686Z,9.36
2022-11-06T18:55:11.301Z,9.42
2022-11-06T18:57:38.226Z,9.25
2022-11-06T19:00:06.205Z,9.29
2022-11-06T19:02:34.109Z,9.31
2022-11-06T19:05:02.009Z,9.37
2022-11-06T19:07:29.085Z,9.46
2022-11-06T19:09:56.050Z,9.43
2022-11-06T19:12:23.052Z,9.71
2022-11-06T19:14:50.021Z,9.42
2022-11-06T19:17:16.927Z,9.40
2022-11-06T19:19:43.959Z,9.38
2022-11-06T19:22:11.026Z,9.36
2022-11-06T19:24:37.908Z,9.54
2022-11-06T19:27:04.965Z,9.33
2022-11-06T19:29:31.890Z,9.53
2022-11-06T19:32:02.321Z,9.25
2022-11-06T19:34:32.135Z,9.34
2022-11-06T19:37:01.054Z,9.30
2022-11-06T19:39:28.219Z,9.33
2022-11-06T19:41:55.143Z,9.41
2022-11-06T19:44:22.144Z,9.55
2022-11-06T19:46:49.567Z,9.44
2022-11-06T19:49:16.663Z,9.42
2022-11-06T19:51:43.543Z,9.39
2022-11-06T19:54:11.216Z,9.48
2022-11-06T19:57:29.738Z,9.57
2022-11-06T19:59:25.580Z,9.52
2022-11-06T20:01:52.606Z,9.41
2022-11-06T20:04:19.566Z,9.51
2022-11-06T20:06:46.506Z,9.44
2022-11-06T20:09:13.470Z,9.42
2022-11-06T20:11:40.374Z,9.36
2022-11-06T20:14:08.095Z,9.40
2022-11-06T20:16:36.002Z,9.48
2022-11-06T20:19:03.287Z,9.46
2022-11-06T20:21:30.294Z,9.45
2022-11-06T20:23:57.408Z,9.43
2022-11-06T20:26:24.903Z,9.39
2022-11-06T20:28:52.114Z,9.38
2022-11-06T20:31:19.846Z,9.45
2022-11-06T20:33:47.878Z,9.45
2022-11-06T20:36:25.410Z,9.46
2022-11-06T20:38:57.571Z,9.52
2022-11-06T20:41:26.625Z,9.60
2022-11-06T20:43:54.461Z,9.83
2022-11-06T20:46:23.096Z,9.73
2022-11-06T20:48:51.330Z,9.70
2022-11-06T20:51:27.263Z,9.58
2022-11-06T20:53:54.356Z,9.60
2022-11-06T20:56:25.163Z,9.73
2022-11-06T20:58:54.960Z,9.55
2022-11-06T21:01:28.722Z,9.72
2022-11-06T21:03:57.469Z,9.64
2022-11-06T21:06:26.603Z,9.73
2022-11-06T21:08:54.292Z,9.88
2022-11-06T21:11:25.069Z,9.82
2022-11-06T21:13:54.127Z,9.76
2022-11-06T21:16:31.491Z,9.59
2022-11-06T21:19:03.384Z,9.61
2022-11-06T21:21:34.016Z,9.57
2022-11-06T21:24:03.402Z,9.71
2022-11-06T21:26:34.314Z,9.80
2022-11-06T21:29:07.279Z,9.61
2022-11-06T21:31:34.761Z,9.76
2022-11-06T21:34:03.547Z,9.77
2022-11-06T21:36:36.350Z,9.87
2022-11-06T21:39:08.509Z,9.69
2022-11-06T21:41:35.822Z,9.77
2022-11-06T21:44:05.524Z,9.66
2022-11-06T21:46:32.612Z,9.61
2022-11-06T21:48:59.750Z,9.67
2022-11-06T21:51:31.306Z,9.80
2022-11-06T21:54:17.460Z,9.81
2022-11-06T21:56:48.099Z,10.02
2022-11-06T21:59:18.105Z,9.89
2022-11-06T22:01:45.265Z,9.95
2022-11-06T22:04:12.876Z,9.87
2022-11-06T22:06:41.979Z,9.66
2022-11-06T22:09:11.552Z,9.79
2022-11-06T22:11:42.347Z,9.90
2022-11-06T22:14:15.100Z,9.81
2022-11-06T22:16:46.235Z,9.89
2022-11-06T22:19:14.945Z,9.95
2022-11-06T22:21:42.439Z,9.83
2022-11-06T22:24:12.478Z,9.92
2022-11-06T22:26:40.230Z,9.84
2022-11-06T22:29:12.201Z,9.93
2022-11-06T22:31:39.312Z,9.94
2022-11-06T22:34:06.771Z,9.91
2022-11-06T22:36:33.805Z,9.92
2022-11-06T22:39:06.078Z,9.93
2022-11-06T22:41:32.994Z,10.06
2022-11-06T22:44:00.299Z,9.96
2022-11-06T22:46:27.983Z,10.02
2022-11-06T22:48:55.456Z,10.11
2022-11-06T22:51:26.768Z,9.91
2022-11-06T22:53:54.169Z,9.98
2022-11-06T22:56:23.385Z,9.99
2022-11-06T22:59:03.115Z,9.91
2022-11-06T23:01:35.910Z,10.01
2022-11-06T23:04:15.474Z,10.26
2022-11-06T23:06:45.910Z,10.07
2022-11-06T23:09:14.195Z,10.05
2022-11-06T23:11:41.675Z,10.16
2022-11-06T23:14:09.536Z,10.14
2022-11-06T23:16:55.619Z,10.10
2022-11-06T23:19:23.771Z,10.12
2022-11-06T23:21:50.783Z,10.23
2022-11-06T23:24:17.781Z,10.00
2022-11-06T23:26:45.256Z,10.30
2022-11-06T23:29:12.365Z,10.26
2022-11-06T23:31:41.058Z,10.21
2022-11-06T23:34:08.307Z,10.18
2022-11-06T23:36:35.526Z,10.28
2022-11-06T23:39:02.446Z,10.27
2022-11-06T23:41:45.623Z,10.45
2022-11-06T23:44:33.249Z,10.42
2022-11-06T23:47:00.865Z,10.34
2022-11-06T23:49:28.111Z,10.31
2022-11-06T23:51:55.064Z,10.32
2022-11-06T23:54:23.428Z,10.34
2022-11-06T23:56:50.383Z,10.45
2022-11-06T23:59:17.418Z,10.42
